Time;durP1;ratioP1;P1;durP2;ratioP2;P2;SDS_P1;SDS_P2;PMS_P1;PMS_P2;Temp;Humidity;BMP_temperature;BMP_pressure;BME280_temperature;BME280_humidity;BME280_pressure;Samples;Min_cycle;Max_cycle;Signal;HPM_P1;HPM_P2
2022/12/12 00:02:22;;;;;;;9.90;4.88;;;;;;;;;;5055050;28;20028;-83
2022/12/12 00:04:48;;;;;;;9.25;5.07;;;;;;;;;;5060705;28;20036;-82
2022/12/12 00:07:14;;;;;;;11.30;5.00;;;;;;;;;;5077129;28;20059;-82
2022/12/12 00:09:40;;;;;;;8.88;4.40;;;;;;;;;;5075504;28;20116;-82
2022/12/12 00:12:06;;;;;;;11.25;5.88;;;;;;;;;;5052874;28;20036;-81
2022/12/12 00:14:32;;;;;;;10.88;5.13;;;;;;;;;;5061484;28;20025;-84
2022/12/12 00:16:58;;;;;;;10.60;4.60;;;;;;;;;;5057764;28;20016;-84
2022/12/12 00:19:24;;;;;;;11.40;4.72;;;;;;;;;;5041149;28;20029;-84
2022/12/12 00:21:50;;;;;;;12.07;5.18;;;;;;;;;;5064373;28;20021;-84
2022/12/12 00:24:17;;;;;;;11.60;5.03;;;;;;;;;;5039848;28;20064;-84
2022/12/12 00:26:43;;;;;;;10.32;5.20;;;;;;;;;;5038667;28;20032;-84
2022/12/12 00:29:10;;;;;;;7.80;4.68;;;;;;;;;;5057239;28;20048;-83
2022/12/12 00:31:36;;;;;;;8.30;4.47;;;;;;;;;;5049755;28;20498;-83
2022/12/12 00:34:02;;;;;;;8.88;4.65;;;;;;;;;;5059271;28;20033;-84
2022/12/12 00:36:29;;;;;;;9.95;4.57;;;;;;;;;;5042412;28;20036;-84
2022/12/12 00:38:55;;;;;;;11.30;4.97;;;;;;;;;;5045348;28;20143;-84
2022/12/12 00:41:22;;;;;;;9.07;5.22;;;;;;;;;;5068914;28;20345;-84
2022/12/12 00:43:48;;;;;;;9.20;4.65;;;;;;;;;;5057197;28;20442;-84
2022/12/12 00:46:15;;;;;;;10.43;5.15;;;;;;;;;;5058101;28;20025;-84
2022/12/12 00:48:41;;;;;;;8.98;5.05;;;;;;;;;;5065127;28;20037;-84
2022/12/12 00:51:08;;;;;;;12.02;4.85;;;;;;;;;;5042977;28;20024;-84
2022/12/12 00:53:35;;;;;;;10.90;4.95;;;;;;;;;;5058803;28;20563;-84
2022/12/12 00:56:01;;;;;;;8.43;4.38;;;;;;;;;;5055887;28;20028;-83
2022/12/12 00:58:27;;;;;;;10.77;4.93;;;;;;;;;;5057949;28;20028;-84
2022/12/12 01:00:53;;;;;;;9.63;5.50;;;;;;;;;;5039811;28;20036;-84
2022/12/12 01:03:19;;;;;;;11.85;5.30;;;;;;;;;;5053073;28;20044;-84
2022/12/12 01:05:46;;;;;;;11.80;4.85;;;;;;;;;;5045590;28;20029;-83
2022/12/12 01:08:12;;;;;;;9.93;4.93;;;;;;;;;;5056426;28;20040;-83
2022/12/12 01:10:38;;;;;;;11.07;5.72;;;;;;;;;;5069677;28;20031;-83
2022/12/12 01:13:04;;;;;;;10.52;5.47;;;;;;;;;;5066611;28;20033;-83
2022/12/12 01:15:30;;;;;;;10.32;4.90;;;;;;;;;;5056608;28;20043;-83
2022/12/12 01:17:56;;;;;;;10.07;4.28;;;;;;;;;;5044519;28;20487;-84
2022/12/12 01:20:24;;;;;;;9.55;4.63;;;;;;;;;;5036330;28;20051;-82
2022/12/12 01:22:50;;;;;;;11.45;5.22;;;;;;;;;;5044926;28;20055;-83
2022/12/12 01:25:16;;;;;;;10.98;5.07;;;;;;;;;;5049267;28;20028;-83
2022/12/12 01:27:44;;;;;;;9.93;4.97;;;;;;;;;;5049601;28;20108;-83
2022/12/12 01:30:15;;;;;;;9.88;4.40;;;;;;;;;;5033795;28;20082;-83
2022/12/12 01:32:41;;;;;;;11.40;5.43;;;;;;;;;;5063335;28;20033;-83
2022/12/12 01:35:07;;;;;;;10.25;4.40;;;;;;;;;;5045798;28;20111;-83
2022/12/12 01:37:37;;;;;;;9.57;4.90;;;;;;;;;;5054935;28;20031;-84
2022/12/12 01:40:04;;;;;;;11.63;4.85;;;;;;;;;;5069136;28;20463;-83
2022/12/12 01:42:31;;;;;;;11.40;4.85;;;;;;;;;;5067082;28;20089;-83
2022/12/12 01:44:57;;;;;;;9.82;4.75;;;;;;;;;;5050613;28;20029;-83
2022/12/12 01:47:24;;;;;;;10.20;4.30;;;;;;;;;;5065699;28;20025;-84
2022/12/12 01:49:55;;;;;;;9.48;4.50;;;;;;;;;;5043092;28;20094;-83
2022/12/12 01:52:24;;;;;;;11.10;5.35;;;;;;;;;;5040682;28;20021;-84
2022/12/12 01:54:53;;;;;;;10.05;4.47;;;;;;;;;;5043161;28;20036;-84
2022/12/12 01:57:26;;;;;;;9.77;4.68;;;;;;;;;;5060913;28;20436;-84
2022/12/12 01:59:53;;;;;;;9.63;4.20;;;;;;;;;;5058877;28;20187;-83
2022/12/12 02:02:19;;;;;;;10.38;4.60;;;;;;;;;;5053404;28;20029;-84
2022/12/12 02:04:45;;;;;;;9.50;4.15;;;;;;;;;;5058942;28;20687;-84
2022/12/12 02:07:11;;;;;;;10.45;4.90;;;;;;;;;;5056469;28;20044;-83
2022/12/12 02:09:38;;;;;;;9.75;4.60;;;;;;;;;;5056574;28;20017;-83
2022/12/12 02:12:05;;;;;;;9.63;4.30;;;;;;;;;;5054518;28;20025;-83
2022/12/12 02:14:32;;;;;;;12.60;5.43;;;;;;;;;;5058458;28;20540;-83
2022/12/12 02:17:08;;;;;;;12.85;5.68;;;;;;;;;;5039391;28;20027;-82
2022/12/12 02:19:42;;;;;;;13.38;4.80;;;;;;;;;;5058446;28;20025;-83
2022/12/12 02:22:14;;;;;;;12.43;6.18;;;;;;;;;;5058687;28;20024;-83
2022/12/12 02:24:40;;;;;;;11.93;6.05;;;;;;;;;;5068047;28;20025;-83
2022/12/12 02:27:19;;;;;;;11.13;5.57;;;;;;;;;;5040249;28;20025;-84
2022/12/12 02:29:54;;;;;;;13.02;5.85;;;;;;;;;;5058085;28;20025;-83
2022/12/12 02:32:23;;;;;;;13.13;6.22;;;;;;;;;;5042981;28;20063;-83
2022/12/12 02:34:52;;;;;;;12.98;7.13;;;;;;;;;;5068032;28;20028;-83
2022/12/12 02:37:29;;;;;;;13.73;7.93;;;;;;;;;;5075061;28;20028;-84
2022/12/12 02:40:04;;;;;;;14.95;7.57;;;;;;;;;;5078331;28;20036;-84
2022/12/12 02:42:43;;;;;;;13.02;6.70;;;;;;;;;;5064613;28;20025;-84
2022/12/12 02:45:14;;;;;;;10.45;6.75;;;;;;;;;;5063457;28;20053;-84
2022/12/12 02:47:42;;;;;;;15.32;8.07;;;;;;;;;;5061358;28;20032;-84
2022/12/12 02:50:11;;;;;;;12.55;6.88;;;;;;;;;;5064693;28;20040;-84
2022/12/12 02:52:37;;;;;;;15.15;7.43;;;;;;;;;;5077512;28;20020;-84
2022/12/12 02:55:04;;;;;;;13.73;9.00;;;;;;;;;;5078741;28;20111;-84
2022/12/12 02:57:30;;;;;;;13.65;7.72;;;;;;;;;;5050413;28;20541;-83
2022/12/12 03:00:01;;;;;;;16.48;8.75;;;;;;;;;;5048400;28;20029;-83
2022/12/12 03:02:36;;;;;;;15.70;8.63;;;;;;;;;;5079461;28;20374;-84
2022/12/12 03:08:12;;;;;;;17.38;8.77;;;;;;;;;;5059878;28;20164;-83
2022/12/12 03:10:57;;;;;;;16.50;9.07;;;;;;;;;;5075038;28;20033;-84
2022/12/12 03:13:46;;;;;;;14.15;8.27;;;;;;;;;;5060780;28;20036;-83
2022/12/12 03:16:12;;;;;;;13.98;8.63;;;;;;;;;;5079866;28;20097;-83
2022/12/12 03:18:47;;;;;;;13.70;7.60;;;;;;;;;;5042834;28;20553;-83
2022/12/12 03:21:22;;;;;;;16.90;8.43;;;;;;;;;;5060967;28;20028;-82
2022/12/12 03:23:50;;;;;;;12.55;7.93;;;;;;;;;;5078438;28;20017;-83
2022/12/12 03:26:19;;;;;;;13.02;7.53;;;;;;;;;;5079298;28;20162;-83
2022/12/12 03:28:47;;;;;;;17.25;8.48;;;;;;;;;;5060341;28;20051;-83
2022/12/12 03:31:14;;;;;;;17.63;9.38;;;;;;;;;;5060847;28;20486;-82
2022/12/12 03:34:06;;;;;;;14.48;8.52;;;;;;;;;;5077838;28;20526;-82
2022/12/12 03:36:39;;;;;;;15.68;8.52;;;;;;;;;;4978639;28;20055;-82
2022/12/12 03:39:07;;;;;;;14.85;7.22;;;;;;;;;;4949875;28;20034;-83
2022/12/12 03:41:47;;;;;;;14.40;7.57;;;;;;;;;;4977215;28;20043;-83
2022/12/12 03:44:17;;;;;;;16.75;9.05;;;;;;;;;;4962211;28;20023;-83
2022/12/12 03:46:50;;;;;;;15.43;7.57;;;;;;;;;;4982540;28;20039;-83
2022/12/12 03:49:28;;;;;;;15.35;9.55;;;;;;;;;;4965013;28;20043;-84
2022/12/12 03:52:01;;;;;;;12.63;7.80;;;;;;;;;;4955776;28;20393;-83
2022/12/12 03:54:27;;;;;;;;;;;;;;;;;;4978388;28;20053;-83
2022/12/12 03:57:22;;;;;;;11.63;6.40;;;;;;;;;;4976691;28;19910;-84
2022/12/12 03:59:52;;;;;;;15.13;8.00;;;;;;;;;;4958566;28;20042;-83
2022/12/12 04:02:25;;;;;;;16.40;8.73;;;;;;;;;;4959638;28;20051;-84
2022/12/12 04:05:07;;;;;;;14.90;7.50;;;;;;;;;;4955064;28;20031;-83
2022/12/12 04:07:38;;;;;;;16.13;8.35;;;;;;;;;;4959762;28;20041;-83
2022/12/12 04:13:05;;;;;;;18.73;8.93;;;;;;;;;;4988350;28;20083;-83
2022/12/12 04:15:31;;;;;;;13.68;7.03;;;;;;;;;;5068709;28;20032;-83
2022/12/12 04:18:12;;;;;;;15.65;8.18;;;;;;;;;;5054159;28;20032;-83
2022/12/12 04:23:51;;;;;;;13.73;6.80;;;;;;;;;;5078295;28;20065;-83
2022/12/12 04:26:39;;;;;;;13.57;7.18;;;;;;;;;;5063389;28;20125;-83
2022/12/12 04:29:24;;;;;;;14.50;8.50;;;;;;;;;;5059749;28;20025;-83
2022/12/12 04:31:54;;;;;;;11.15;6.53;;;;;;;;;;5044598;28;20032;-83
2022/12/12 04:34:38;;;;;;;11.68;7.15;;;;;;;;;;5051729;28;20052;-83
2022/12/12 04:37:06;;;;;;;13.23;6.93;;;;;;;;;;5061058;28;20029;-83
2022/12/12 04:39:32;;;;;;;16.45;7.47;;;;;;;;;;5079863;28;20025;-83
2022/12/12 04:42:00;;;;;;;14.82;6.72;;;;;;;;;;5077124;28;20775;-83
2022/12/12 04:44:27;;;;;;;13.55;6.45;;;;;;;;;;5061111;28;20017;-83
2022/12/12 04:46:54;;;;;;;14.40;8.13;;;;;;;;;;5079922;28;20025;-83
2022/12/12 04:49:23;;;;;;;17.30;8.70;;;;;;;;;;5061002;28;20047;-83
2022/12/12 04:51:52;;;;;;;15.40;6.10;;;;;;;;;;5057354;28;20116;-83
2022/12/12 04:54:31;;;;;;;14.15;6.15;;;;;;;;;;5040965;28;20028;-83
2022/12/12 04:56:59;;;;;;;13.23;6.28;;;;;;;;;;5058781;28;20038;-84
2022/12/12 04:59:25;;;;;;;16.10;6.38;;;;;;;;;;5045216;28;20406;-83
2022/12/12 05:02:11;;;;;;;9.20;5.50;;;;;;;;;;5045415;28;20078;-83
2022/12/12 05:04:47;;;;;;;12.52;6.18;;;;;;;;;;5059350;28;20082;-83
2022/12/12 05:07:42;;;;;;;8.38;4.90;;;;;;;;;;5039938;28;20052;-83
2022/12/12 05:10:11;;;;;;;10.57;4.75;;;;;;;;;;4976709;28;20043;-83
2022/12/12 05:12:42;;;;;;;8.98;4.65;;;;;;;;;;4964717;28;20022;-83
2022/12/12 05:15:08;;;;;;;10.73;5.15;;;;;;;;;;4978408;28;20057;-83
2022/12/12 05:35:02;;;;;;;9.57;4.40;;;;;;;;;;4403961;28;20052;-81
2022/12/12 05:37:28;;;;;;;9.85;4.72;;;;;;;;;;5058078;28;20028;-82
2022/12/12 05:39:54;;;;;;;8.85;4.28;;;;;;;;;;5084721;28;20028;-82
2022/12/12 05:42:20;;;;;;;12.40;6.00;;;;;;;;;;5086434;28;20052;-82
2022/12/12 05:44:46;;;;;;;11.90;5.55;;;;;;;;;;5093951;28;20020;-82
2022/12/12 05:47:12;;;;;;;8.70;4.53;;;;;;;;;;5075420;28;20024;-82
2022/12/12 05:49:38;;;;;;;9.57;4.18;;;;;;;;;;5070413;28;20047;-82
2022/12/12 05:52:06;;;;;;;9.68;5.03;;;;;;;;;;5072158;28;20074;-82
2022/12/12 05:54:32;;;;;;;13.80;5.35;;;;;;;;;;5090242;28;20028;-82
2022/12/12 05:56:58;;;;;;;10.90;4.07;;;;;;;;;;5089931;28;20021;-83
2022/12/12 05:59:24;;;;;;;9.25;4.10;;;;;;;;;;5090867;28;20036;-83
2022/12/12 06:01:50;;;;;;;10.30;4.07;;;;;;;;;;5072181;28;20029;-83
2022/12/12 06:04:16;;;;;;;12.02;4.25;;;;;;;;;;5072849;28;20094;-83
2022/12/12 06:06:42;;;;;;;8.35;3.72;;;;;;;;;;5072399;28;20028;-83
2022/12/12 06:09:08;;;;;;;12.73;4.38;;;;;;;;;;5072499;28;20028;-82
2022/12/12 06:11:34;;;;;;;9.93;4.38;;;;;;;;;;5073059;28;20034;-82
2022/12/12 06:14:00;;;;;;;12.68;5.47;;;;;;;;;;5073656;28;20025;-82
2022/12/12 06:16:26;;;;;;;10.57;4.47;;;;;;;;;;5071185;28;20047;-82
2022/12/12 06:18:54;;;;;;;13.48;5.15;;;;;;;;;;5070658;28;20053;-81
2022/12/12 06:21:21;;;;;;;11.55;4.53;;;;;;;;;;5070879;28;20024;-82
2022/12/12 06:23:47;;;;;;;8.88;4.88;;;;;;;;;;5102467;28;20074;-82
2022/12/12 06:26:15;;;;;;;8.85;3.85;;;;;;;;;;5064918;28;20031;-82
2022/12/12 06:28:41;;;;;;;9.18;4.82;;;;;;;;;;5076621;28;20009;-81
2022/12/12 06:31:08;;;;;;;9.88;4.15;;;;;;;;;;5096911;28;20008;-81
2022/12/12 06:33:34;;;;;;;11.63;5.63;;;;;;;;;;5074724;28;20131;-82
2022/12/12 06:36:02;;;;;;;12.90;5.88;;;;;;;;;;5071309;28;20098;-82
2022/12/12 06:38:29;;;;;;;19.20;8.15;;;;;;;;;;5056696;28;20040;-81
2022/12/12 06:40:55;;;;;;;13.20;6.32;;;;;;;;;;5102643;28;20025;-82
2022/12/12 06:43:21;;;;;;;13.55;6.30;;;;;;;;;;5067034;28;20036;-82
2022/12/12 06:45:47;;;;;;;14.60;7.80;;;;;;;;;;5068660;28;20040;-81
2022/12/12 06:48:13;;;;;;;8.50;4.65;;;;;;;;;;5067143;28;20029;-81
2022/12/12 06:50:40;;;;;;;9.55;5.35;;;;;;;;;;5073585;28;20136;-80
2022/12/12 06:53:05;;;;;;;10.57;5.07;;;;;;;;;;5072446;28;20025;-82
2022/12/12 06:55:31;;;;;;;12.70;5.63;;;;;;;;;;5064731;28;20031;-82
2022/12/12 06:57:58;;;;;;;9.10;3.47;;;;;;;;;;5071136;28;20471;-82
2022/12/12 07:00:24;;;;;;;9.35;3.70;;;;;;;;;;5069832;28;20561;-81
2022/12/12 07:02:50;;;;;;;11.10;4.82;;;;;;;;;;5070967;28;20032;-81
2022/12/12 07:05:16;;;;;;;10.55;4.85;;;;;;;;;;5065696;28;20035;-82
2022/12/12 07:07:41;;;;;;;10.57;4.75;;;;;;;;;;5067315;28;20021;-81
2022/12/12 07:10:08;;;;;;;10.13;4.20;;;;;;;;;;5067037;28;20397;-81
2022/12/12 07:12:34;;;;;;;11.18;5.95;;;;;;;;;;5067808;28;20021;-82
2022/12/12 07:18:07;;;;;;;8.25;3.75;;;;;;;;;;5068462;28;20028;-81
2022/12/12 07:20:33;;;;;;;8.45;3.88;;;;;;;;;;5071748;28;20036;-82
2022/12/12 07:22:59;;;;;;;9.38;3.38;;;;;;;;;;5083944;28;20054;-81
2022/12/12 07:25:25;;;;;;;10.35;4.03;;;;;;;;;;5087192;28;20031;-82
2022/12/12 07:27:51;;;;;;;5.60;2.65;;;;;;;;;;5069118;28;20112;-81
2022/12/12 07:30:17;;;;;;;11.02;6.18;;;;;;;;;;5070234;28;20048;-82
2022/12/12 07:35:47;;;;;;;5.75;2.80;;;;;;;;;;4572813;28;20132;-81
2022/12/12 07:38:13;;;;;;;6.75;4.00;;;;;;;;;;5073302;28;20400;-81
2022/12/12 07:40:39;;;;;;;6.30;3.25;;;;;;;;;;5070464;28;20236;-81
2022/12/12 07:43:05;;;;;;;7.75;3.35;;;;;;;;;;5071123;28;20016;-82
2022/12/12 07:45:31;;;;;;;5.47;2.88;;;;;;;;;;5088910;28;20025;-82
2022/12/12 07:47:57;;;;;;;6.43;3.67;;;;;;;;;;5088888;28;20080;-82
2022/12/12 07:50:23;;;;;;;6.63;3.35;;;;;;;;;;5102229;28;20036;-82
2022/12/12 07:52:49;;;;;;;7.90;4.03;;;;;;;;;;5077737;28;20032;-82
2022/12/12 07:55:15;;;;;;;9.15;4.43;;;;;;;;;;5069577;28;20029;-83
2022/12/12 07:57:41;;;;;;;9.05;3.97;;;;;;;;;;5089294;28;20025;-81
2022/12/12 08:00:09;;;;;;;8.13;3.58;;;;;;;;;;5070927;28;20059;-82
2022/12/12 08:02:35;;;;;;;7.88;3.33;;;;;;;;;;5070500;28;20465;-82
2022/12/12 08:05:01;;;;;;;7.20;3.00;;;;;;;;;;5071798;28;20098;-83
2022/12/12 08:07:27;;;;;;;6.90;3.45;;;;;;;;;;5071341;28;20043;-83
2022/12/12 08:09:53;;;;;;;8.57;3.50;;;;;;;;;;5071302;28;20024;-83
2022/12/12 08:12:19;;;;;;;7.53;3.95;;;;;;;;;;5090275;28;20020;-83
2022/12/12 08:14:45;;;;;;;8.38;3.63;;;;;;;;;;5070631;28;20013;-83
2022/12/12 08:17:11;;;;;;;6.82;3.28;;;;;;;;;;5073160;28;20047;-82
2022/12/12 08:19:37;;;;;;;6.40;3.15;;;;;;;;;;5071117;28;20088;-82
2022/12/12 08:22:03;;;;;;;9.25;3.63;;;;;;;;;;5071509;28;20124;-82
2022/12/12 08:24:30;;;;;;;9.88;4.32;;;;;;;;;;5074525;28;20599;-82
2022/12/12 08:26:55;;;;;;;7.63;4.00;;;;;;;;;;5071079;28;20039;-82
2022/12/12 08:29:21;;;;;;;7.93;3.90;;;;;;;;;;5071969;28;20040;-83
2022/12/12 08:31:47;;;;;;;6.90;3.88;;;;;;;;;;5071076;28;20108;-83
2022/12/12 08:34:14;;;;;;;7.28;3.33;;;;;;;;;;5071662;28;20107;-82
2022/12/12 08:36:40;;;;;;;9.05;3.95;;;;;;;;;;5070297;28;20048;-82
2022/12/12 08:39:11;;;;;;;8.93;3.90;;;;;;;;;;5071529;28;20100;-83
2022/12/12 08:41:39;;;;;;;9.23;3.80;;;;;;;;;;5071801;28;20020;-82
2022/12/12 08:44:05;;;;;;;7.43;3.85;;;;;;;;;;5071321;28;20074;-82
2022/12/12 08:46:31;;;;;;;7.53;3.17;;;;;;;;;;5071634;28;20020;-81
2022/12/12 08:48:57;;;;;;;9.68;4.28;;;;;;;;;;5069368;28;20112;-83
2022/12/12 08:51:23;;;;;;;5.97;3.40;;;;;;;;;;5088816;28;20044;-82
2022/12/12 08:53:50;;;;;;;7.13;3.53;;;;;;;;;;5088323;28;20036;-81
2022/12/12 08:56:16;;;;;;;10.27;3.95;;;;;;;;;;5086801;28;20021;-82
2022/12/12 08:58:42;;;;;;;7.88;3.70;;;;;;;;;;5070713;28;20027;-82
2022/12/12 09:01:10;;;;;;;12.35;4.05;;;;;;;;;;5069570;28;20128;-82
2022/12/12 09:03:36;;;;;;;7.45;3.50;;;;;;;;;;5069379;28;20035;-81
2022/12/12 09:06:02;;;;;;;12.25;4.93;;;;;;;;;;5069450;28;20048;-82
2022/12/12 09:08:28;;;;;;;8.82;4.53;;;;;;;;;;5070304;28;20104;-84
2022/12/12 09:10:54;;;;;;;8.50;3.78;;;;;;;;;;5069550;28;20025;-81
2022/12/12 09:13:20;;;;;;;10.05;4.13;;;;;;;;;;5068945;28;20379;-82
2022/12/12 09:15:49;;;;;;;6.85;3.60;;;;;;;;;;5069787;28;20028;-81
2022/12/12 09:18:15;;;;;;;12.38;5.38;;;;;;;;;;5069392;28;20021;-82
2022/12/12 09:20:41;;;;;;;10.45;4.43;;;;;;;;;;5069817;28;20398;-81
2022/12/12 09:23:07;;;;;;;6.85;3.40;;;;;;;;;;5069048;28;20017;-82
2022/12/12 09:25:34;;;;;;;7.30;3.88;;;;;;;;;;5070197;28;20062;-82
2022/12/12 09:28:00;;;;;;;7.10;3.60;;;;;;;;;;5088186;28;20021;-82
2022/12/12 09:30:26;;;;;;;10.05;4.63;;;;;;;;;;5071265;28;20031;-82
2022/12/12 09:32:52;;;;;;;7.65;3.85;;;;;;;;;;5070352;28;20031;-83
2022/12/12 09:35:18;;;;;;;9.27;3.75;;;;;;;;;;5072814;28;20025;-82
2022/12/12 09:37:44;;;;;;;7.10;3.50;;;;;;;;;;5071891;28;20041;-83
2022/12/12 09:40:15;;;;;;;8.57;3.75;;;;;;;;;;5071636;28;20020;-83
2022/12/12 09:42:47;;;;;;;11.38;4.95;;;;;;;;;;5070803;28;20032;-83
2022/12/12 09:45:13;;;;;;;9.88;3.80;;;;;;;;;;5088804;28;20028;-82
2022/12/12 09:47:46;;;;;;;9.07;3.97;;;;;;;;;;5071160;28;20024;-83
2022/12/12 09:50:33;;;;;;;9.48;3.88;;;;;;;;;;5071386;28;20032;-84
2022/12/12 09:53:00;;;;;;;8.02;3.35;;;;;;;;;;5070249;28;20039;-83
2022/12/12 09:55:35;;;;;;;8.13;4.03;;;;;;;;;;5071471;28;20580;-83
2022/12/12 09:58:08;;;;;;;7.75;3.72;;;;;;;;;;5071429;28;20058;-83
2022/12/12 10:00:34;;;;;;;;;;;;;;;;;;5071828;28;20031;-83
2022/12/12 10:03:21;;;;;;;7.43;3.22;;;;;;;;;;5086558;28;19924;-83
2022/12/12 10:05:56;;;;;;;7.18;2.65;;;;;;;;;;5071987;28;20146;-84
2022/12/12 10:08:32;;;;;;;8.40;3.92;;;;;;;;;;5073406;28;20017;-84
2022/12/12 10:11:02;;;;;;;9.73;3.70;;;;;;;;;;5091558;28;20024;-84
2022/12/12 10:13:30;;;;;;;9.50;4.60;;;;;;;;;;5090149;28;20089;-84
2022/12/12 10:15:59;;;;;;;9.30;3.72;;;;;;;;;;5071933;28;20063;-84
2022/12/12 10:18:30;;;;;;;10.25;3.97;;;;;;;;;;5072705;28;20389;-85
2022/12/12 10:21:08;;;;;;;10.77;4.95;;;;;;;;;;5074558;28;20029;-85
2022/12/12 10:23:45;;;;;;;8.93;3.80;;;;;;;;;;5074406;28;20021;-85
2022/12/12 10:26:18;;;;;;;7.80;4.35;;;;;;;;;;5072974;28;20023;-84
2022/12/12 10:28:44;;;;;;;10.95;5.68;;;;;;;;;;5072859;28;20025;-84
2022/12/12 10:31:21;;;;;;;7.88;4.47;;;;;;;;;;5073219;28;20025;-83
2022/12/12 10:33:47;;;;;;;8.15;3.42;;;;;;;;;;5072115;28;20025;-84
2022/12/12 10:36:16;;;;;;;7.15;3.97;;;;;;;;;;5073314;28;20049;-85
2022/12/12 10:39:05;;;;;;;7.03;3.50;;;;;;;;;;5073249;28;20032;-83
2022/12/12 10:41:47;;;;;;;7.90;3.72;;;;;;;;;;5073775;28;20028;-83
2022/12/12 10:44:32;;;;;;;6.72;3.88;;;;;;;;;;5079146;28;20005;-84
2022/12/12 10:47:06;;;;;;;8.38;4.25;;;;;;;;;;5078854;28;20043;-84
2022/12/12 10:49:32;;;;;;;7.65;3.25;;;;;;;;;;5073883;28;20021;-85
2022/12/12 10:52:01;;;;;;;7.28;3.38;;;;;;;;;;5073842;28;20085;-83
2022/12/12 10:54:28;;;;;;;6.78;3.65;;;;;;;;;;5072779;28;20051;-85
2022/12/12 10:57:04;;;;;;;7.40;3.47;;;;;;;;;;5070361;28;20032;-84
2022/12/12 10:59:30;;;;;;;7.05;2.90;;;;;;;;;;5072406;28;20024;-84
2022/12/12 11:01:59;;;;;;;5.85;2.83;;;;;;;;;;5072675;28;20035;-84
2022/12/12 11:04:27;;;;;;;8.25;3.58;;;;;;;;;;5072129;28;20515;-83
2022/12/12 11:06:55;;;;;;;7.90;3.15;;;;;;;;;;5071433;28;20512;-84
2022/12/12 11:09:22;;;;;;;7.75;3.08;;;;;;;;;;5071977;28;20028;-84
2022/12/12 11:12:02;;;;;;;7.10;3.05;;;;;;;;;;5072319;28;20052;-85
2022/12/12 11:14:35;;;;;;;6.72;3.00;;;;;;;;;;5089436;28;20032;-84
2022/12/12 11:17:01;;;;;;;6.75;3.00;;;;;;;;;;5070669;28;20060;-84
2022/12/12 11:19:35;;;;;;;6.78;3.42;;;;;;;;;;5071712;28;20037;-83
2022/12/12 11:22:03;;;;;;;6.13;3.10;;;;;;;;;;5070768;28;20031;-83
2022/12/12 11:24:31;;;;;;;6.28;3.60;;;;;;;;;;5069469;28;20020;-83
2022/12/12 11:26:58;;;;;;;7.15;3.10;;;;;;;;;;5069288;28;20508;-83
2022/12/12 11:29:24;;;;;;;6.05;3.08;;;;;;;;;;5070503;28;20029;-84
2022/12/12 11:31:50;;;;;;;5.03;2.80;;;;;;;;;;5070870;28;20056;-83
2022/12/12 11:34:16;;;;;;;6.32;3.03;;;;;;;;;;5069891;28;20033;-83
2022/12/12 11:36:42;;;;;;;5.95;2.95;;;;;;;;;;5069742;28;20079;-82
2022/12/12 11:39:20;;;;;;;7.18;3.25;;;;;;;;;;5070076;28;20017;-81
2022/12/12 11:42:16;;;;;;;6.45;2.83;;;;;;;;;;5070353;28;20029;-83
2022/12/12 11:44:43;;;;;;;7.10;2.85;;;;;;;;;;5069854;28;20118;-82
2022/12/12 11:47:18;;;;;;;7.07;3.22;;;;;;;;;;5071073;28;20024;-83
2022/12/12 11:49:48;;;;;;;6.38;3.10;;;;;;;;;;5071931;28;20028;-83
2022/12/12 11:52:19;;;;;;;5.68;2.70;;;;;;;;;;5073864;28;20020;-83
2022/12/12 11:54:45;;;;;;;7.60;2.90;;;;;;;;;;5070358;28;20032;-83
2022/12/12 11:57:18;;;;;;;5.78;3.20;;;;;;;;;;5069402;28;20024;-82
2022/12/12 11:59:47;;;;;;;7.18;2.60;;;;;;;;;;5069575;28;20028;-83
2022/12/12 12:02:16;;;;;;;6.70;2.78;;;;;;;;;;5069203;28;20051;-82
2022/12/12 12:04:50;;;;;;;5.18;2.33;;;;;;;;;;5069847;28;20032;-82
2022/12/12 12:07:16;;;;;;;6.72;3.22;;;;;;;;;;5072729;28;20017;-81
2022/12/12 12:09:46;;;;;;;6.47;2.83;;;;;;;;;;5090888;28;20448;-82
2022/12/12 12:12:15;;;;;;;7.30;3.42;;;;;;;;;;5071719;28;20134;-81
2022/12/12 12:14:47;;;;;;;6.72;3.25;;;;;;;;;;5074440;28;20027;-83
2022/12/12 12:17:25;;;;;;;5.75;2.38;;;;;;;;;;5090354;28;20028;-83
2022/12/12 12:20:11;;;;;;;5.30;2.78;;;;;;;;;;5072909;28;20016;-82
2022/12/12 12:22:43;;;;;;;6.38;3.35;;;;;;;;;;5083002;28;20060;-83
2022/12/12 12:25:19;;;;;;;6.50;3.38;;;;;;;;;;5092618;28;20039;-82
2022/12/12 12:28:11;;;;;;;8.48;3.55;;;;;;;;;;5090874;28;20036;-83
2022/12/12 12:30:40;;;;;;;7.95;3.58;;;;;;;;;;5068929;28;20027;-83
2022/12/12 12:33:18;;;;;;;9.82;4.55;;;;;;;;;;5071762;28;20029;-82
2022/12/12 12:35:48;;;;;;;11.82;5.07;;;;;;;;;;5089244;28;20053;-83
2022/12/12 12:38:39;;;;;;;11.75;6.63;;;;;;;;;;5073084;28;20025;-82
2022/12/12 12:41:24;;;;;;;11.77;6.05;;;;;;;;;;5074230;28;20032;-84
2022/12/12 12:44:09;;;;;;;10.90;5.57;;;;;;;;;;5073313;28;20005;-84
2022/12/12 12:46:36;;;;;;;12.00;5.90;;;;;;;;;;5072263;28;20027;-83
2022/12/12 12:49:25;;;;;;;11.10;6.18;;;;;;;;;;5071624;28;20017;-84
2022/12/12 12:51:57;;;;;;;11.93;6.57;;;;;;;;;;5015849;28;20032;-83
2022/12/12 12:54:25;;;;;;;13.40;5.72;;;;;;;;;;5070682;28;20032;-84
2022/12/12 12:56:54;;;;;;;17.42;7.22;;;;;;;;;;5088156;28;20025;-84
2022/12/12 12:59:22;;;;;;;12.27;6.40;;;;;;;;;;5070852;28;20031;-84
2022/12/12 13:01:50;;;;;;;14.48;7.30;;;;;;;;;;5070343;28;20039;-83
2022/12/12 13:04:24;;;;;;;12.25;7.78;;;;;;;;;;5070938;28;20016;-85
2022/12/12 13:06:56;;;;;;;14.25;6.05;;;;;;;;;;5070316;28;20025;-84
2022/12/12 13:09:29;;;;;;;15.07;7.32;;;;;;;;;;5070148;28;20020;-84
2022/12/12 13:12:04;;;;;;;14.43;6.78;;;;;;;;;;5070860;28;20036;-84
2022/12/12 13:14:50;;;;;;;15.38;7.10;;;;;;;;;;5071016;28;20102;-82
2022/12/12 13:17:36;;;;;;;14.15;7.30;;;;;;;;;;5070954;28;20025;-83
2022/12/12 13:20:02;;;;;;;13.73;6.35;;;;;;;;;;5069325;28;20113;-84
2022/12/12 13:22:28;;;;;;;13.95;6.80;;;;;;;;;;5069906;28;20024;-83
2022/12/12 13:24:58;;;;;;;13.48;7.00;;;;;;;;;;5069785;28;20035;-84
2022/12/12 13:27:54;;;;;;;13.25;7.40;;;;;;;;;;5070738;28;20027;-84
2022/12/12 13:30:35;;;;;;;13.93;7.72;;;;;;;;;;4970393;28;20031;-83
2022/12/12 13:33:31;;;;;;;12.63;6.70;;;;;;;;;;4969781;28;20019;-83
2022/12/12 13:36:00;;;;;;;15.52;7.25;;;;;;;;;;4946469;29;20056;-83
2022/12/12 13:38:28;;;;;;;12.00;6.32;;;;;;;;;;4949851;29;20034;-84
2022/12/12 13:40:56;;;;;;;14.43;6.47;;;;;;;;;;4951522;29;20565;-83
2022/12/12 13:43:37;;;;;;;17.45;8.13;;;;;;;;;;4951968;29;20047;-84
2022/12/12 13:46:19;;;;;;;15.10;7.40;;;;;;;;;;4940615;29;20040;-83
2022/12/12 13:48:49;;;;;;;13.07;7.13;;;;;;;;;;4926237;29;20025;-84
2022/12/12 13:51:27;;;;;;;16.23;7.55;;;;;;;;;;4930571;29;20055;-86
2022/12/12 13:54:10;;;;;;;12.23;5.88;;;;;;;;;;4930999;29;20054;-84
2022/12/12 13:56:36;;;;;;;;;;;;;;;;;;4932412;29;20041;-83
2022/12/12 13:59:02;;;;;;;14.05;6.43;;;;;;;;;;4938354;29;19910;-83
2022/12/12 14:01:28;;;;;;;11.95;6.13;;;;;;;;;;4937063;29;20063;-83
2022/12/12 14:03:54;;;;;;;15.20;7.05;;;;;;;;;;4930056;29;20037;-83
2022/12/12 14:06:20;;;;;;;11.70;6.10;;;;;;;;;;4961440;28;20030;-85
2022/12/12 14:08:48;;;;;;;13.02;6.80;;;;;;;;;;5010691;28;20041;-85
2022/12/12 14:11:26;;;;;;;11.57;6.68;;;;;;;;;;5019635;28;20014;-84
2022/12/12 14:14:02;;;;;;;11.52;5.93;;;;;;;;;;5088323;28;20027;-83
2022/12/12 14:16:28;;;;;;;11.15;5.95;;;;;;;;;;5071098;28;20028;-83
2022/12/12 14:18:54;;;;;;;14.32;6.82;;;;;;;;;;5073879;28;20017;-85
2022/12/12 14:21:21;;;;;;;13.50;6.38;;;;;;;;;;5073889;28;20025;-85
2022/12/12 14:23:49;;;;;;;12.05;5.28;;;;;;;;;;5071179;28;20135;-83
2022/12/12 14:26:27;;;;;;;14.63;6.82;;;;;;;;;;5071776;28;20029;-83
2022/12/12 14:29:12;;;;;;;13.98;6.28;;;;;;;;;;5069763;28;20382;-84
2022/12/12 14:31:39;;;;;;;13.85;7.10;;;;;;;;;;5070483;28;20173;-84
2022/12/12 14:34:16;;;;;;;12.95;7.53;;;;;;;;;;5072042;28;20092;-83
2022/12/12 14:36:48;;;;;;;15.52;6.70;;;;;;;;;;5067153;28;20049;-84
2022/12/12 14:39:14;;;;;;;12.25;7.10;;;;;;;;;;5064952;28;20040;-84
2022/12/12 14:41:41;;;;;;;11.50;5.63;;;;;;;;;;5051148;28;20052;-82
2022/12/12 14:44:13;;;;;;;18.55;8.13;;;;;;;;;;5067425;28;20025;-83
2022/12/12 14:46:41;;;;;;;12.32;5.78;;;;;;;;;;5065905;28;20417;-83
2022/12/12 14:49:12;;;;;;;14.07;6.90;;;;;;;;;;5066652;28;20048;-84
2022/12/12 14:51:39;;;;;;;12.20;6.43;;;;;;;;;;5064243;28;20040;-83
2022/12/12 14:54:12;;;;;;;13.88;7.93;;;;;;;;;;5066071;28;20044;-83
2022/12/12 14:56:40;;;;;;;14.45;6.35;;;;;;;;;;5067447;28;20052;-82
2022/12/12 14:59:08;;;;;;;12.75;5.88;;;;;;;;;;5067074;28;20101;-83
2022/12/12 15:01:39;;;;;;;13.95;6.70;;;;;;;;;;5064637;28;20032;-82
2022/12/12 15:04:06;;;;;;;11.02;6.15;;;;;;;;;;5070262;28;20031;-82
2022/12/12 15:06:42;;;;;;;23.80;8.93;;;;;;;;;;5078959;28;20078;-82
2022/12/12 15:09:14;;;;;;;12.10;6.00;;;;;;;;;;5058911;28;20126;-82
2022/12/12 15:11:40;;;;;;;12.75;6.15;;;;;;;;;;5067812;28;20021;-83
2022/12/12 15:14:06;;;;;;;15.38;6.32;;;;;;;;;;5065241;28;20117;-82
2022/12/12 15:16:39;;;;;;;12.98;6.57;;;;;;;;;;5067415;28;20072;-83
2022/12/12 15:19:05;;;;;;;13.88;6.32;;;;;;;;;;5065468;28;20025;-82
2022/12/12 15:21:31;;;;;;;14.90;7.82;;;;;;;;;;5065981;28;20029;-82
2022/12/12 15:23:58;;;;;;;13.90;7.65;;;;;;;;;;5065622;28;20048;-82
2022/12/12 15:26:29;;;;;;;19.80;7.57;;;;;;;;;;5064579;28;20021;-82